sensor_id;sensor_type;location;lat;lon;timestamp;pressure;altitude;pressure_sealevel;temperature;humidity
35291;BME280;21411;50.024;19.220;2023-02-21T00:02:24;98343.70;;;9.33;100.00
35291;BME280;21411;50.024;19.220;2023-02-21T00:05:10;98343.59;;;9.32;100.00
35291;BME280;21411;50.024;19.220;2023-02-21T00:07:55;98340.14;;;9.30;100.00
35291;BME280;21411;50.024;19.220;2023-02-21T00:10:40;98347.70;;;9.29;100.00
35291;BME280;21411;50.024;19.220;2023-02-21T00:13:25;98350.83;;;9.27;100.00
35291;BME280;21411;50.024;19.220;2023-02-21T00:16:17;98345.58;;;9.26;100.00
35291;BME280;21411;50.024;19.220;2023-02-21T00:19:03;98342.77;;;9.26;100.00
35291;BME280;21411;50.024;19.220;2023-02-21T00:21:48;98339.27;;;9.25;100.00
35291;BME280;21411;50.024;19.220;2023-02-21T00:24:33;98335.70;;;9.23;100.00
35291;BME280;21411;50.024;19.220;2023-02-21T00:27:18;98332.92;;;9.22;100.00
35291;BME280;21411;50.024;19.220;2023-02-21T00:30:04;98327.29;;;9.21;100.00
35291;BME280;21411;50.024;19.220;2023-02-21T00:32:49;98331.64;;;9.20;100.00
35291;BME280;21411;50.024;19.220;2023-02-21T00:35:35;98331.39;;;9.19;100.00
35291;BME280;21411;50.024;19.220;2023-02-21T00:38:20;98334.58;;;9.19;100.00
35291;BME280;21411;50.024;19.220;2023-02-21T00:41:05;98334.02;;;9.19;100.00
35291;BME280;21411;50.024;19.220;2023-02-21T00:43:51;98339.33;;;9.19;100.00
35291;BME280;21411;50.024;19.220;2023-02-21T00:46:36;98342.63;;;9.20;100.00
35291;BME280;21411;50.024;19.220;2023-02-21T00:49:21;98339.23;;;9.21;100.00
35291;BME280;21411;50.024;19.220;2023-02-21T00:52:06;98338.95;;;9.22;100.00
35291;BME280;21411;50.024;19.220;2023-02-21T00:54:51;98337.60;;;9.24;100.00
35291;BME280;21411;50.024;19.220;2023-02-21T00:57:36;98330.02;;;9.23;100.00
35291;BME280;21411;50.024;19.220;2023-02-21T01:00:23;98328.67;;;9.22;100.00
35291;BME280;21411;50.024;19.220;2023-02-21T01:03:09;98331.41;;;9.21;100.00
35291;BME280;21411;50.024;19.220;2023-02-21T01:05:55;98334.57;;;9.21;100.00
35291;BME280;21411;50.024;19.220;2023-02-21T01:08:42;98329.98;;;9.23;100.00
35291;BME280;21411;50.024;19.220;2023-02-21T01:11:27;98324.88;;;9.26;100.00
35291;BME280;21411;50.024;19.220;2023-02-21T01:14:13;98318.42;;;9.27;100.00
35291;BME280;21411;50.024;19.220;2023-02-21T01:16:58;98320.69;;;9.27;100.00
35291;BME280;21411;50.024;19.220;2023-02-21T01:19:44;98320.77;;;9.29;100.00
35291;BME280;21411;50.024;19.220;2023-02-21T01:22:29;98313.89;;;9.31;100.00
35291;BME280;21411;50.024;19.220;2023-02-21T01:25:14;98311.38;;;9.31;100.00
35291;BME280;21411;50.024;19.220;2023-02-21T01:28:00;98313.78;;;9.32;100.00
35291;BME280;21411;50.024;19.220;2023-02-21T01:30:45;98311.78;;;9.33;100.00
35291;BME280;21411;50.024;19.220;2023-02-21T01:33:38;98307.17;;;9.33;100.00
35291;BME280;21411;50.024;19.220;2023-02-21T01:36:25;98305.71;;;9.33;100.00
35291;BME280;21411;50.024;19.220;2023-02-21T01:39:10;98307.50;;;9.35;100.00
35291;BME280;21411;50.024;19.220;2023-02-21T01:41:55;98297.80;;;9.37;100.00
35291;BME280;21411;50.024;19.220;2023-02-21T01:44:43;98291.58;;;9.38;100.00
35291;BME280;21411;50.024;19.220;2023-02-21T01:47:29;98287.48;;;9.38;100.00
35291;BME280;21411;50.024;19.220;2023-02-21T01:53:08;98285.39;;;9.39;100.00
35291;BME280;21411;50.024;19.220;2023-02-21T01:55:55;98280.30;;;9.41;100.00
35291;BME280;21411;50.024;19.220;2023-02-21T01:58:41;98277.38;;;9.42;100.00
35291;BME280;21411;50.024;19.220;2023-02-21T02:01:43;98280.85;;;9.43;100.00
35291;BME280;21411;50.024;19.220;2023-02-21T02:04:31;98276.61;;;9.43;100.00
35291;BME280;21411;50.024;19.220;2023-02-21T02:07:18;98278.66;;;9.44;100.00
35291;BME280;21411;50.024;19.220;2023-02-21T02:10:05;98272.29;;;9.44;100.00
35291;BME280;21411;50.024;19.220;2023-02-21T02:35:37;98274.75;;;9.39;100.00
35291;BME280;21411;50.024;19.220;2023-02-21T02:43:15;98279.25;;;9.27;100.00
35291;BME280;21411;50.024;19.220;2023-02-21T02:45:50;98282.73;;;9.20;100.00
35291;BME280;21411;50.024;19.220;2023-02-21T02:48:24;98282.66;;;9.14;100.00
35291;BME280;21411;50.024;19.220;2023-02-21T02:50:53;98290.08;;;9.07;100.00
35291;BME280;21411;50.024;19.220;2023-02-21T02:53:25;98284.51;;;9.01;100.00
35291;BME280;21411;50.024;19.220;2023-02-21T02:58:24;98285.23;;;8.88;100.00
35291;BME280;21411;50.024;19.220;2023-02-21T03:04:01;98285.33;;;8.76;100.00
35291;BME280;21411;50.024;19.220;2023-02-21T03:11:36;98293.88;;;8.73;100.00
35291;BME280;21411;50.024;19.220;2023-02-21T03:14:12;98293.40;;;8.73;100.00
35291;BME280;21411;50.024;19.220;2023-02-21T03:16:47;98295.71;;;8.72;100.00
35291;BME280;21411;50.024;19.220;2023-02-21T03:19:19;98304.85;;;8.71;100.00
35291;BME280;21411;50.024;19.220;2023-02-21T03:22:04;98303.19;;;8.69;100.00
35291;BME280;21411;50.024;19.220;2023-02-21T03:24:33;98302.98;;;8.67;100.00
35291;BME280;21411;50.024;19.220;2023-02-21T03:27:05;98298.30;;;8.66;100.00
35291;BME280;21411;50.024;19.220;2023-02-21T03:29:33;98297.00;;;8.64;100.00
35291;BME280;21411;50.024;19.220;2023-02-21T03:32:06;98293.80;;;8.62;100.00
35291;BME280;21411;50.024;19.220;2023-02-21T03:34:40;98290.70;;;8.58;100.00
35291;BME280;21411;50.024;19.220;2023-02-21T03:37:10;98285.64;;;8.54;100.00
35291;BME280;21411;50.024;19.220;2023-02-21T03:39:43;98285.30;;;8.52;100.00
35291;BME280;21411;50.024;19.220;2023-02-21T03:42:10;98290.55;;;8.50;100.00
35291;BME280;21411;50.024;19.220;2023-02-21T03:44:37;98288.85;;;8.49;100.00
35291;BME280;21411;50.024;19.220;2023-02-21T03:47:03;98288.98;;;8.47;100.00
35291;BME280;21411;50.024;19.220;2023-02-21T03:49:30;98294.05;;;8.46;100.00
35291;BME280;21411;50.024;19.220;2023-02-21T03:51:56;98297.48;;;8.45;100.00
35291;BME280;21411;50.024;19.220;2023-02-21T03:54:23;98300.14;;;8.45;100.00
35291;BME280;21411;50.024;19.220;2023-02-21T03:56:50;98293.83;;;8.44;100.00
35291;BME280;21411;50.024;19.220;2023-02-21T03:59:17;98293.00;;;8.43;100.00
35291;BME280;21411;50.024;19.220;2023-02-21T04:01:43;98292.87;;;8.42;100.00
35291;BME280;21411;50.024;19.220;2023-02-21T04:04:10;98293.61;;;8.42;100.00
35291;BME280;21411;50.024;19.220;2023-02-21T04:06:37;98293.20;;;8.42;100.00
35291;BME280;21411;50.024;19.220;2023-02-21T04:09:04;98291.27;;;8.42;100.00
35291;BME280;21411;50.024;19.220;2023-02-21T04:11:31;98290.51;;;8.41;100.00
35291;BME280;21411;50.024;19.220;2023-02-21T04:13:57;98288.34;;;8.38;100.00
35291;BME280;21411;50.024;19.220;2023-02-21T04:16:24;98286.30;;;8.37;100.00
35291;BME280;21411;50.024;19.220;2023-02-21T04:18:50;98285.97;;;8.36;100.00
35291;BME280;21411;50.024;19.220;2023-02-21T04:21:18;98284.26;;;8.35;100.00
35291;BME280;21411;50.024;19.220;2023-02-21T04:23:45;98286.32;;;8.34;100.00
35291;BME280;21411;50.024;19.220;2023-02-21T04:26:11;98289.41;;;8.33;100.00
35291;BME280;21411;50.024;19.220;2023-02-21T04:28:38;98290.33;;;8.30;100.00
35291;BME280;21411;50.024;19.220;2023-02-21T04:31:05;98300.00;;;8.26;100.00
35291;BME280;21411;50.024;19.220;2023-02-21T04:33:31;98306.08;;;8.22;100.00
35291;BME280;21411;50.024;19.220;2023-02-21T04:35:58;98305.70;;;8.17;100.00
35291;BME280;21411;50.024;19.220;2023-02-21T04:38:24;98302.23;;;8.14;100.00
35291;BME280;21411;50.024;19.220;2023-02-21T04:40:51;98297.01;;;8.10;100.00
35291;BME280;21411;50.024;19.220;2023-02-21T04:43:18;98286.58;;;8.07;100.00
35291;BME280;21411;50.024;19.220;2023-02-21T04:45:46;98285.65;;;8.03;100.00
35291;BME280;21411;50.024;19.220;2023-02-21T04:48:13;98283.64;;;7.98;100.00
35291;BME280;21411;50.024;19.220;2023-02-21T04:50:40;98282.15;;;7.95;100.00
35291;BME280;21411;50.024;19.220;2023-02-21T04:53:06;98281.71;;;7.90;100.00
35291;BME280;21411;50.024;19.220;2023-02-21T04:55:33;98283.66;;;7.87;100.00
35291;BME280;21411;50.024;19.220;2023-02-21T04:57:59;98288.10;;;7.84;100.00
35291;BME280;21411;50.024;19.220;2023-02-21T05:00:26;98286.76;;;7.81;100.00
35291;BME280;21411;50.024;19.220;2023-02-21T05:02:53;98286.90;;;7.79;100.00
35291;BME280;21411;50.024;19.220;2023-02-21T05:05:20;98286.97;;;7.78;100.00
35291;BME280;21411;50.024;19.220;2023-02-21T05:07:47;98290.55;;;7.77;100.00
35291;BME280;21411;50.024;19.220;2023-02-21T05:10:15;98288.80;;;7.77;100.00
35291;BME280;21411;50.024;19.220;2023-02-21T05:12:42;98287.67;;;7.78;100.00
35291;BME280;21411;50.024;19.220;2023-02-21T05:15:11;98291.17;;;7.78;100.00
35291;BME280;21411;50.024;19.220;2023-02-21T05:17:38;98293.00;;;7.80;100.00
35291;BME280;21411;50.024;19.220;2023-02-21T05:20:05;98294.13;;;7.82;100.00
35291;BME280;21411;50.024;19.220;2023-02-21T05:22:38;98300.02;;;7.83;100.00
35291;BME280;21411;50.024;19.220;2023-02-21T05:25:25;98301.64;;;7.85;100.00
35291;BME280;21411;50.024;19.220;2023-02-21T05:27:52;98305.49;;;7.86;100.00
35291;BME280;21411;50.024;19.220;2023-02-21T05:30:21;98304.14;;;7.85;100.00
35291;BME280;21411;50.024;19.220;2023-02-21T05:32:49;98305.19;;;7.83;100.00
35291;BME280;21411;50.024;19.220;2023-02-21T05:35:16;98308.02;;;7.80;100.00
35291;BME280;21411;50.024;19.220;2023-02-21T05:37:43;98306.24;;;7.78;100.00
35291;BME280;21411;50.024;19.220;2023-02-21T05:40:10;98308.38;;;7.75;100.00
35291;BME280;21411;50.024;19.220;2023-02-21T05:42:38;98305.94;;;7.71;100.00
35291;BME280;21411;50.024;19.220;2023-02-21T05:45:04;98301.51;;;7.69;100.00
35291;BME280;21411;50.024;19.220;2023-02-21T05:47:33;98304.20;;;7.66;100.00
35291;BME280;21411;50.024;19.220;2023-02-21T05:50:00;98304.83;;;7.64;100.00
35291;BME280;21411;50.024;19.220;2023-02-21T05:52:27;98304.96;;;7.62;100.00
35291;BME280;21411;50.024;19.220;2023-02-21T05:54:54;98309.80;;;7.59;100.00
35291;BME280;21411;50.024;19.220;2023-02-21T05:57:21;98303.41;;;7.56;100.00
35291;BME280;21411;50.024;19.220;2023-02-21T05:59:47;98299.73;;;7.53;100.00
35291;BME280;21411;50.024;19.220;2023-02-21T06:02:15;98305.13;;;7.52;100.00
35291;BME280;21411;50.024;19.220;2023-02-21T06:04:42;98305.80;;;7.49;100.00
35291;BME280;21411;50.024;19.220;2023-02-21T06:07:08;98308.75;;;7.47;100.00
35291;BME280;21411;50.024;19.220;2023-02-21T06:09:35;98310.81;;;7.46;100.00
35291;BME280;21411;50.024;19.220;2023-02-21T06:12:02;98309.13;;;7.44;100.00
35291;BME280;21411;50.024;19.220;2023-02-21T06:14:28;98311.83;;;7.44;100.00
35291;BME280;21411;50.024;19.220;2023-02-21T06:16:55;98311.72;;;7.43;100.00
35291;BME280;21411;50.024;19.220;2023-02-21T06:19:21;98314.57;;;7.43;100.00
35291;BME280;21411;50.024;19.220;2023-02-21T06:21:48;98317.25;;;7.42;100.00
35291;BME280;21411;50.024;19.220;2023-02-21T06:24:15;98320.26;;;7.42;100.00
35291;BME280;21411;50.024;19.220;2023-02-21T06:26:41;98321.13;;;7.42;100.00
35291;BME280;21411;50.024;19.220;2023-02-21T06:29:09;98321.85;;;7.44;100.00
35291;BME280;21411;50.024;19.220;2023-02-21T06:31:35;98326.86;;;7.46;100.00
35291;BME280;21411;50.024;19.220;2023-02-21T06:34:02;98329.14;;;7.46;100.00
35291;BME280;21411;50.024;19.220;2023-02-21T06:36:29;98330.71;;;7.47;100.00
35291;BME280;21411;50.024;19.220;2023-02-21T06:38:56;98333.75;;;7.49;100.00
35291;BME280;21411;50.024;19.220;2023-02-21T06:41:25;98328.73;;;7.53;100.00
35291;BME280;21411;50.024;19.220;2023-02-21T06:43:54;98327.05;;;7.57;100.00
35291;BME280;21411;50.024;19.220;2023-02-21T06:46:23;98331.63;;;7.60;100.00
35291;BME280;21411;50.024;19.220;2023-02-21T06:48:50;98336.02;;;7.63;100.00
35291;BME280;21411;50.024;19.220;2023-02-21T06:51:17;98337.88;;;7.67;100.00
35291;BME280;21411;50.024;19.220;2023-02-21T06:53:48;98339.96;;;7.70;100.00
35291;BME280;21411;50.024;19.220;2023-02-21T06:56:15;98336.21;;;7.74;100.00
35291;BME280;21411;50.024;19.220;2023-02-21T06:58:42;98340.36;;;7.83;100.00
35291;BME280;21411;50.024;19.220;2023-02-21T07:01:09;98336.02;;;7.90;100.00
35291;BME280;21411;50.024;19.220;2023-02-21T07:03:39;98332.11;;;7.96;100.00
35291;BME280;21411;50.024;19.220;2023-02-21T07:06:05;98336.94;;;8.03;100.00
35291;BME280;21411;50.024;19.220;2023-02-21T07:08:32;98341.23;;;8.10;100.00
35291;BME280;21411;50.024;19.220;2023-02-21T07:10:59;98345.84;;;8.10;100.00
35291;BME280;21411;50.024;19.220;2023-02-21T07:13:26;98346.54;;;8.10;100.00
35291;BME280;21411;50.024;19.220;2023-02-21T07:15:52;98349.48;;;8.16;100.00
35291;BME280;21411;50.024;19.220;2023-02-21T07:18:19;98352.19;;;8.23;100.00
35291;BME280;21411;50.024;19.220;2023-02-21T07:20:45;98359.63;;;8.31;100.00
35291;BME280;21411;50.024;19.220;2023-02-21T07:23:12;98363.39;;;8.35;100.00
35291;BME280;21411;50.024;19.220;2023-02-21T07:25:39;98363.99;;;8.40;100.00
35291;BME280;21411;50.024;19.220;2023-02-21T07:28:06;98359.16;;;8.46;100.00
35291;BME280;21411;50.024;19.220;2023-02-21T07:30:33;98359.98;;;8.44;100.00
35291;BME280;21411;50.024;19.220;2023-02-21T07:32:59;98368.68;;;8.42;100.00
35291;BME280;21411;50.024;19.220;2023-02-21T07:35:26;98370.14;;;8.38;100.00
35291;BME280;21411;50.024;19.220;2023-02-21T07:37:52;98369.80;;;8.35;100.00
35291;BME280;21411;50.024;19.220;2023-02-21T07:40:19;98370.44;;;8.42;100.00
35291;BME280;21411;50.024;19.220;2023-02-21T07:42:46;98369.70;;;8.48;100.00
35291;BME280;21411;50.024;19.220;2023-02-21T07:45:15;98372.17;;;8.53;100.00
35291;BME280;21411;50.024;19.220;2023-02-21T07:47:44;98365.95;;;8.66;100.00
35291;BME280;21411;50.024;19.220;2023-02-21T07:50:11;98369.95;;;8.72;100.00
35291;BME280;21411;50.024;19.220;2023-02-21T07:52:38;98376.39;;;8.76;100.00
35291;BME280;21411;50.024;19.220;2023-02-21T07:55:05;98377.09;;;8.84;100.00
35291;BME280;21411;50.024;19.220;2023-02-21T07:57:32;98371.20;;;8.87;100.00
35291;BME280;21411;50.024;19.220;2023-02-21T07:59:58;98373.45;;;8.91;100.00
35291;BME280;21411;50.024;19.220;2023-02-21T08:02:25;98379.63;;;8.86;100.00
35291;BME280;21411;50.024;19.220;2023-02-21T08:04:54;98379.15;;;8.87;100.00
35291;BME280;21411;50.024;19.220;2023-02-21T08:07:21;98375.98;;;8.82;100.00
35291;BME280;21411;50.024;19.220;2023-02-21T08:09:48;98382.08;;;8.78;100.00
35291;BME280;21411;50.024;19.220;2023-02-21T08:12:15;98382.17;;;8.74;100.00
35291;BME280;21411;50.024;19.220;2023-02-21T08:14:42;98375.63;;;8.74;100.00
35291;BME280;21411;50.024;19.220;2023-02-21T08:17:09;98377.52;;;8.75;100.00
35291;BME280;21411;50.024;19.220;2023-02-21T08:19:35;98374.48;;;8.83;100.00
35291;BME280;21411;50.024;19.220;2023-02-21T08:22:02;98374.66;;;8.86;100.00
35291;BME280;21411;50.024;19.220;2023-02-21T08:24:28;98376.86;;;8.80;100.00
35291;BME280;21411;50.024;19.220;2023-02-21T08:26:55;98381.83;;;8.72;100.00
35291;BME280;21411;50.024;19.220;2023-02-21T08:29:22;98382.28;;;8.71;100.00
35291;BME280;21411;50.024;19.220;2023-02-21T08:31:49;98382.98;;;8.73;100.00
35291;BME280;21411;50.024;19.220;2023-02-21T08:34:15;98375.84;;;8.76;100.00
35291;BME280;21411;50.024;19.220;2023-02-21T08:36:42;98378.60;;;8.72;100.00
35291;BME280;21411;50.024;19.220;2023-02-21T08:39:09;98387.64;;;8.64;100.00
35291;BME280;21411;50.024;19.220;2023-02-21T08:41:39;98387.66;;;8.62;100.00
35291;BME280;21411;50.024;19.220;2023-02-21T08:44:08;98384.66;;;8.64;100.00
35291;BME280;21411;50.024;19.220;2023-02-21T08:46:35;98385.13;;;8.65;100.00
35291;BME280;21411;50.024;19.220;2023-02-21T08:49:03;98391.79;;;8.58;100.00
35291;BME280;21411;50.024;19.220;2023-02-21T08:51:31;98397.11;;;8.55;100.00
35291;BME280;21411;50.024;19.220;2023-02-21T08:53:58;98395.59;;;8.60;100.00
35291;BME280;21411;50.024;19.220;2023-02-21T08:56:26;98397.02;;;8.70;100.00
35291;BME280;21411;50.024;19.220;2023-02-21T08:58:53;98396.30;;;8.83;100.00
35291;BME280;21411;50.024;19.220;2023-02-21T09:01:21;98398.67;;;8.92;100.00
35291;BME280;21411;50.024;19.220;2023-02-21T09:03:49;98404.51;;;9.00;100.00
35291;BME280;21411;50.024;19.220;2023-02-21T09:06:16;98406.39;;;9.06;100.00
35291;BME280;21411;50.024;19.220;2023-02-21T09:08:43;98409.46;;;9.12;100.00
35291;BME280;21411;50.024;19.220;2023-02-21T09:11:10;98412.38;;;9.22;100.00
35291;BME280;21411;50.024;19.220;2023-02-21T09:13:36;98406.01;;;9.31;100.00
35291;BME280;21411;50.024;19.220;2023-02-21T09:16:06;98405.30;;;9.34;100.00
35291;BME280;21411;50.024;19.220;2023-02-21T09:18:52;98415.24;;;9.38;100.00
35291;BME280;21411;50.024;19.220;2023-02-21T09:21:19;98414.77;;;9.40;100.00
35291;BME280;21411;50.024;19.220;2023-02-21T09:23:45;98422.09;;;9.44;100.00
35291;BME280;21411;50.024;19.220;2023-02-21T09:26:12;98419.73;;;9.48;100.00
35291;BME280;21411;50.024;19.220;2023-02-21T09:28:38;98424.69;;;9.48;100.00
35291;BME280;21411;50.024;19.220;2023-02-21T09:31:09;98433.63;;;9.52;100.00
35291;BME280;21411;50.024;19.220;2023-02-21T09:33:36;98430.77;;;9.59;100.00
35291;BME280;21411;50.024;19.220;2023-02-21T09:36:07;98433.78;;;9.59;100.00
35291;BME280;21411;50.024;19.220;2023-02-21T09:38:34;98435.56;;;9.62;100.00
35291;BME280;21411;50.024;19.220;2023-02-21T09:41:04;98436.24;;;9.72;100.00
35291;BME280;21411;50.024;19.220;2023-02-21T09:43:33;98433.05;;;10.01;100.00
35291;BME280;21411;50.024;19.220;2023-02-21T09:46:04;98426.27;;;10.33;100.00
35291;BME280;21411;50.024;19.220;2023-02-21T09:48:32;98419.12;;;10.36;100.00
35291;BME280;21411;50.024;19.220;2023-02-21T09:51:02;98421.58;;;10.27;100.00
35291;BME280;21411;50.024;19.220;2023-02-21T09:53:34;98431.56;;;10.17;100.00
35291;BME280;21411;50.024;19.220;2023-02-21T09:56:25;98437.80;;;10.04;100.00
35291;BME280;21411;50.024;19.220;2023-02-21T09:58:54;98448.99;;;10.01;100.00
35291;BME280;21411;50.024;19.220;2023-02-21T10:06:56;98447.33;;;10.37;100.00
35291;BME280;21411;50.024;19.220;2023-02-21T10:09:36;98449.13;;;10.57;100.00
35291;BME280;21411;50.024;19.220;2023-02-21T10:17:34;98439.85;;;10.91;100.00
35291;BME280;21411;50.024;19.220;2023-02-21T10:20:15;98435.48;;;10.96;100.00
35291;BME280;21411;50.024;19.220;2023-02-21T10:22:46;98432.94;;;10.95;100.00
35291;BME280;21411;50.024;19.220;2023-02-21T10:25:27;98436.61;;;11.09;100.00
35291;BME280;21411;50.024;19.220;2023-02-21T10:27:58;98438.88;;;11.28;100.00
35291;BME280;21411;50.024;19.220;2023-02-21T10:30:36;98436.13;;;11.40;100.00
35291;BME280;21411;50.024;19.220;2023-02-21T10:33:03;98434.73;;;11.49;100.00
35291;BME280;21411;50.024;19.220;2023-02-21T10:35:33;98434.41;;;11.55;100.00
35291;BME280;21411;50.024;19.220;2023-02-21T10:38:04;98436.80;;;11.52;100.00
35291;BME280;21411;50.024;19.220;2023-02-21T10:40:35;98436.79;;;11.52;100.00
35291;BME280;21411;50.024;19.220;2023-02-21T10:48:34;98435.80;;;11.51;100.00
35291;BME280;21411;50.024;19.220;2023-02-21T10:51:08;98436.98;;;11.70;100.00
35291;BME280;21411;50.024;19.220;2023-02-21T10:53:43;98437.98;;;11.84;100.00
35291;BME280;21411;50.024;19.220;2023-02-21T11:01:21;98438.31;;;11.98;100.00
35291;BME280;21411;50.024;19.220;2023-02-21T11:03:59;98439.92;;;12.28;100.00
35291;BME280;21411;50.024;19.220;2023-02-21T11:08:59;98442.23;;;12.39;100.00
35291;BME280;21411;50.024;19.220;2023-02-21T11:11:38;98438.73;;;12.27;100.00
35291;BME280;21411;50.024;19.220;2023-02-21T11:14:27;98433.27;;;12.29;100.00
35291;BME280;21411;50.024;19.220;2023-02-21T11:17:14;98434.88;;;12.37;100.00
35291;BME280;21411;50.024;19.220;2023-02-21T11:22:21;98439.00;;;12.59;100.00
35291;BME280;21411;50.024;19.220;2023-02-21T11:24:54;98444.94;;;12.79;100.00
35291;BME280;21411;50.024;19.220;2023-02-21T11:27:23;98435.88;;;12.83;100.00
35291;BME280;21411;50.024;19.220;2023-02-21T11:29:50;98433.84;;;12.78;100.00
35291;BME280;21411;50.024;19.220;2023-02-21T11:32:49;98433.23;;;12.70;100.00
35291;BME280;21411;50.024;19.220;2023-02-21T11:35:24;98426.61;;;12.62;100.00
35291;BME280;21411;50.024;19.220;2023-02-21T11:37:59;98432.14;;;12.77;100.00
35291;BME280;21411;50.024;19.220;2023-02-21T11:40:31;98429.06;;;12.88;100.00
35291;BME280;21411;50.024;19.220;2023-02-21T11:49:03;98449.77;;;12.83;100.00
35291;BME280;21411;50.024;19.220;2023-02-21T11:51:45;98446.00;;;12.56;100.00
35291;BME280;21411;50.024;19.220;2023-02-21T11:54:12;98438.31;;;12.30;100.00
35291;BME280;21411;50.024;19.220;2023-02-21T11:57:01;98451.14;;;12.13;100.00
35291;BME280;21411;50.024;19.220;2023-02-21T12:05:38;98450.95;;;12.02;100.00
35291;BME280;21411;50.024;19.220;2023-02-21T12:08:38;98450.92;;;11.94;100.00
35291;BME280;21411;50.024;19.220;2023-02-21T12:29:08;98448.09;;;11.87;100.00
35291;BME280;21411;50.024;19.220;2023-02-21T12:31:48;98452.52;;;11.90;100.00
35291;BME280;21411;50.024;19.220;2023-02-21T12:47:55;98452.59;;;11.79;100.00
35291;BME280;21411;50.024;19.220;2023-02-21T12:50:30;98451.98;;;11.87;100.00
35291;BME280;21411;50.024;19.220;2023-02-21T12:53:06;98458.17;;;11.92;100.00
35291;BME280;21411;50.024;19.220;2023-02-21T12:55:39;98466.14;;;11.93;100.00
35291;BME280;21411;50.024;19.220;2023-02-21T13:01:06;98462.06;;;11.93;100.00
35291;BME280;21411;50.024;19.220;2023-02-21T13:06:43;98467.98;;;11.63;100.00
35291;BME280;21411;50.024;19.220;2023-02-21T13:14:27;98471.06;;;10.91;100.00
35291;BME280;21411;50.024;19.220;2023-02-21T13:16:57;98475.64;;;10.85;100.00
35291;BME280;21411;50.024;19.220;2023-02-21T13:19:24;98475.81;;;10.81;100.00
35291;BME280;21411;50.024;19.220;2023-02-21T13:28:17;98487.77;;;10.78;100.00
35291;BME280;21411;50.024;19.220;2023-02-21T13:30:48;98477.20;;;10.86;100.00
35291;BME280;21411;50.024;19.220;2023-02-21T13:33:47;98479.79;;;10.86;100.00
35291;BME280;21411;50.024;19.220;2023-02-21T13:36:21;98472.82;;;10.78;100.00
35291;BME280;21411;50.024;19.220;2023-02-21T13:39:04;98461.08;;;10.69;100.00
35291;BME280;21411;50.024;19.220;2023-02-21T13:41:39;98464.51;;;10.68;100.00
35291;BME280;21411;50.024;19.220;2023-02-21T14:00:48;98476.04;;;11.15;100.00
35291;BME280;21411;50.024;19.220;2023-02-21T14:08:29;98481.54;;;11.17;100.00
35291;BME280;21411;50.024;19.220;2023-02-21T14:29:12;98499.52;;;10.75;100.00
35291;BME280;21411;50.024;19.220;2023-02-21T14:39:52;98503.27;;;10.65;100.00
35291;BME280;21411;50.024;19.220;2023-02-21T14:48:43;98504.41;;;10.79;100.00
35291;BME280;21411;50.024;19.220;2023-02-21T15:05:44;98516.23;;;10.82;100.00
35291;BME280;21411;50.024;19.220;2023-02-21T15:08:19;98516.69;;;10.80;100.00
35291;BME280;21411;50.024;19.220;2023-02-21T15:10:47;98516.75;;;10.80;100.00
35291;BME280;21411;50.024;19.220;2023-02-21T15:13:34;98520.95;;;10.81;100.00
35291;BME280;21411;50.024;19.220;2023-02-21T15:16:04;98520.00;;;10.77;100.00
35291;BME280;21411;50.024;19.220;2023-02-21T15:18:35;98528.61;;;10.73;100.00
35291;BME280;21411;50.024;19.220;2023-02-21T15:23:46;98524.95;;;10.82;100.00
35291;BME280;21411;50.024;19.220;2023-02-21T15:26:26;98524.73;;;10.85;100.00
35291;BME280;21411;50.024;19.220;2023-02-21T15:31:39;98525.86;;;10.84;100.00
35291;BME280;21411;50.024;19.220;2023-02-21T15:34:18;98524.70;;;10.83;100.00
35291;BME280;21411;50.024;19.220;2023-02-21T15:36:48;98535.88;;;10.81;100.00
35291;BME280;21411;50.024;19.220;2023-02-21T15:39:25;98538.27;;;10.79;100.00
35291;BME280;21411;50.024;19.220;2023-02-21T15:41:54;98535.59;;;10.80;100.00
35291;BME280;21411;50.024;19.220;2023-02-21T15:44:35;98533.30;;;10.77;100.00
35291;BME280;21411;50.024;19.220;2023-02-21T15:47:07;98533.34;;;10.69;100.00
35291;BME280;21411;50.024;19.220;2023-02-21T15:49:44;98534.10;;;10.59;100.00
35291;BME280;21411;50.024;19.220;2023-02-21T15:52:33;98532.73;;;10.49;100.00
35291;BME280;21411;50.024;19.220;2023-02-21T16:00:28;98545.12;;;10.18;100.00
35291;BME280;21411;50.024;19.220;2023-02-21T16:06:09;98544.56;;;9.93;100.00
35291;BME280;21411;50.024;19.220;2023-02-21T16:09:02;98549.18;;;9.83;100.00
35291;BME280;21411;50.024;19.220;2023-02-21T16:17:39;98557.67;;;9.58;100.00
35291;BME280;21411;50.024;19.220;2023-02-21T16:20:18;98566.23;;;9.53;100.00
35291;BME280;21411;50.024;19.220;2023-02-21T16:22:50;98569.54;;;9.48;100.00
35291;BME280;21411;50.024;19.220;2023-02-21T16:25:21;98569.52;;;9.43;100.00
35291;BME280;21411;50.024;19.220;2023-02-21T16:27:55;98570.50;;;9.39;100.00
35291;BME280;21411;50.024;19.220;2023-02-21T16:30:27;98569.25;;;9.37;100.00
35291;BME280;21411;50.024;19.220;2023-02-21T16:32:59;98575.59;;;9.33;100.00
35291;BME280;21411;50.024;19.220;2023-02-21T16:35:27;98583.31;;;9.29;100.00
35291;BME280;21411;50.024;19.220;2023-02-21T16:37:56;98584.53;;;9.26;100.00
35291;BME280;21411;50.024;19.220;2023-02-21T16:40:27;98582.75;;;9.24;100.00
35291;BME280;21411;50.024;19.220;2023-02-21T16:42:55;98579.91;;;9.21;100.00
35291;BME280;21411;50.024;19.220;2023-02-21T16:45:23;98581.48;;;9.19;100.00
35291;BME280;21411;50.024;19.220;2023-02-21T16:48:04;98584.08;;;9.17;100.00
35291;BME280;21411;50.024;19.220;2023-02-21T16:53:01;98584.58;;;9.12;100.00
35291;BME280;21411;50.024;19.220;2023-02-21T16:55:28;98591.38;;;9.09;100.00
35291;BME280;21411;50.024;19.220;2023-02-21T16:57:58;98591.67;;;9.05;100.00